createdAt,value
2023-08-21T00:03:57.095Z,1.77
2023-08-21T00:08:59.827Z,1.83
2023-08-21T00:14:02.449Z,1.90
2023-08-21T00:19:05.150Z,1.80
2023-08-21T00:24:07.860Z,1.73
2023-08-21T00:29:10.449Z,1.73
2023-08-21T00:34:13.467Z,1.90
2023-08-21T00:39:16.049Z,1.80
2023-08-21T00:44:18.625Z,1.83
2023-08-21T00:49:22.293Z,1.90
2023-08-21T00:54:24.929Z,1.67
2023-08-21T00:59:28.757Z,2.03
2023-08-21T01:04:31.346Z,1.98
2023-08-21T01:10:26.970Z,2.25
2023-08-21T01:15:30.971Z,3.78
2023-08-21T01:20:33.936Z,2.10
2023-08-21T01:25:36.520Z,1.58
2023-08-21T01:30:39.305Z,1.80
2023-08-21T01:35:42.029Z,1.73
2023-08-21T01:40:44.557Z,1.85
2023-08-21T01:45:47.362Z,2.00
2023-08-21T01:50:50.218Z,2.13
2023-08-21T01:55:52.793Z,2.10
2023-08-21T02:00:55.451Z,2.10
2023-08-21T02:06:01.533Z,2.10
2023-08-21T02:11:04.146Z,1.83
2023-08-21T02:16:06.727Z,2.10
2023-08-21T02:21:09.311Z,1.83
2023-08-21T02:26:11.897Z,2.25
2023-08-21T02:31:16.065Z,2.70
2023-08-21T02:36:18.744Z,1.55
2023-08-21T02:41:21.402Z,1.85
2023-08-21T02:46:24.066Z,2.58
2023-08-21T02:51:26.749Z,2.17
2023-08-21T02:56:29.269Z,2.50
2023-08-21T03:01:32.234Z,2.40
2023-08-21T03:06:34.831Z,2.10
2023-08-21T03:11:37.471Z,1.90
2023-08-21T03:16:40.162Z,2.20
2023-08-21T03:21:42.740Z,2.20
2023-08-21T03:26:45.820Z,2.42
2023-08-21T03:31:51.530Z,1.95
2023-08-21T03:36:54.127Z,2.30
2023-08-21T03:41:56.743Z,2.35
2023-08-21T03:47:00.418Z,2.45
2023-08-21T03:52:03.019Z,2.22
2023-08-21T03:57:06.070Z,2.42
2023-08-21T04:02:08.637Z,2.10
2023-08-21T04:07:12.144Z,2.22
2023-08-21T04:12:15.164Z,2.70
2023-08-21T04:17:23.754Z,2.72
2023-08-21T04:22:26.355Z,2.67
2023-08-21T04:27:29.342Z,2.65
2023-08-21T04:32:32.517Z,2.05
2023-08-21T04:37:35.245Z,2.13
2023-08-21T04:42:38.915Z,2.05
2023-08-21T04:47:41.806Z,2.33
2023-08-21T04:52:44.390Z,1.90
2023-08-21T04:57:46.989Z,2.13
2023-08-21T05:02:49.632Z,2.35
2023-08-21T05:07:54.698Z,2.25
2023-08-21T05:18:01.908Z,1.87
2023-08-21T05:23:05.441Z,2.47
2023-08-21T05:33:11.960Z,2.40
2023-08-21T05:38:14.737Z,2.40
2023-08-21T05:43:20.997Z,2.63
2023-08-21T05:48:23.985Z,2.90
2023-08-21T05:53:26.981Z,2.95
2023-08-21T05:58:32.342Z,3.03
2023-08-21T06:03:35.285Z,3.67
2023-08-21T06:08:52.885Z,3.20
2023-08-21T06:13:55.544Z,4.13
2023-08-21T06:18:58.195Z,3.38
2023-08-21T06:24:00.940Z,3.40
2023-08-21T06:29:03.621Z,3.00
2023-08-21T06:34:06.298Z,2.72
2023-08-21T06:39:09.063Z,2.50
2023-08-21T06:44:14.531Z,3.25
2023-08-21T06:49:17.060Z,2.90
2023-08-21T06:54:19.682Z,2.72
2023-08-21T06:59:22.550Z,3.40
2023-08-21T07:04:25.192Z,2.92
2023-08-21T07:09:27.764Z,3.03
2023-08-21T07:14:30.433Z,4.07
2023-08-21T07:19:33.254Z,3.33
2023-08-21T07:24:35.968Z,2.90
2023-08-21T07:29:38.636Z,2.60
2023-08-21T07:34:41.198Z,2.35
2023-08-21T07:39:43.779Z,2.17
2023-08-21T07:44:47.367Z,2.78
2023-08-21T07:49:50.096Z,2.10
2023-08-21T07:54:56.146Z,2.58
2023-08-21T07:59:58.702Z,2.20
2023-08-21T08:05:01.652Z,2.45
2023-08-21T08:10:04.605Z,2.60
2023-08-21T08:15:08.028Z,2.60
2023-08-21T08:20:11.717Z,2.70
2023-08-21T08:25:14.781Z,3.00
2023-08-21T08:30:17.660Z,2.83
2023-08-21T08:35:20.392Z,2.72
2023-08-21T08:40:24.150Z,2.83
2023-08-21T08:45:32.154Z,2.42
2023-08-21T08:50:36.005Z,2.50
2023-08-21T08:55:38.632Z,2.40
2023-08-21T09:00:41.292Z,2.33
2023-08-21T09:05:44.345Z,2.85
2023-08-21T09:10:47.014Z,2.83
2023-08-21T09:15:54.745Z,3.30
2023-08-21T09:20:57.622Z,3.90
2023-08-21T09:26:00.183Z,3.75
2023-08-21T09:31:04.242Z,3.55
2023-08-21T09:36:06.880Z,3.08
2023-08-21T09:41:09.483Z,3.67
2023-08-21T09:46:19.896Z,3.30
2023-08-21T09:51:23.028Z,3.30
2023-08-21T09:56:26.438Z,3.25
2023-08-21T10:01:29.187Z,3.90
2023-08-21T10:06:32.291Z,3.35
2023-08-21T10:11:35.017Z,3.58
2023-08-21T10:16:37.681Z,3.92
2023-08-21T10:21:40.886Z,3.92
2023-08-21T10:26:47.728Z,3.92
2023-08-21T10:32:03.821Z,4.07
2023-08-21T10:37:11.270Z,3.65
2023-08-21T10:42:17.093Z,3.75
2023-08-21T10:47:27.342Z,3.67
2023-08-21T10:52:44.144Z,3.22
2023-08-21T10:57:49.889Z,3.40
2023-08-21T11:02:52.973Z,3.60
2023-08-21T11:07:55.717Z,3.15
2023-08-21T11:13:03.419Z,3.65
2023-08-21T11:18:06.355Z,3.72
2023-08-21T11:23:09.268Z,4.35
2023-08-21T11:28:12.003Z,3.38
2023-08-21T11:33:15.296Z,3.38
2023-08-21T11:38:27.110Z,4.00
2023-08-21T11:43:43.554Z,3.55
2023-08-21T11:48:46.731Z,3.63
2023-08-21T11:53:52.778Z,3.67
2023-08-21T11:58:55.400Z,3.80
2023-08-21T12:03:58.365Z,3.85
2023-08-21T12:09:01.530Z,3.92
2023-08-21T12:14:04.214Z,4.85
2023-08-21T12:19:10.664Z,4.65
2023-08-21T12:24:13.454Z,3.95
2023-08-21T12:29:16.292Z,4.22
2023-08-21T12:34:20.439Z,3.60
2023-08-21T12:39:23.243Z,4.07
2023-08-21T12:44:25.907Z,4.20
2023-08-21T12:49:28.650Z,5.30
2023-08-21T12:54:35.963Z,5.88
2023-08-21T12:59:39.366Z,6.07
2023-08-21T13:04:42.029Z,5.97
2023-08-21T13:09:44.617Z,6.03
2023-08-21T13:14:49.460Z,6.55
2023-08-21T13:19:52.094Z,5.30
2023-08-21T13:24:54.697Z,5.65
2023-08-21T13:29:57.214Z,5.20
2023-08-21T13:34:59.808Z,5.88
2023-08-21T13:40:12.473Z,5.38
2023-08-21T13:45:19.190Z,5.37
2023-08-21T13:50:21.887Z,5.18
2023-08-21T13:55:24.546Z,5.00
2023-08-21T14:00:30.244Z,5.15
2023-08-21T14:05:34.727Z,4.95
2023-08-21T14:10:40.373Z,5.22
2023-08-21T14:15:42.920Z,4.75
2023-08-21T14:20:46.084Z,3.80
2023-08-21T14:25:48.891Z,3.53
2023-08-21T14:30:54.049Z,3.58
2023-08-21T14:35:57.376Z,3.78
2023-08-21T14:41:00.053Z,4.22
2023-08-21T14:46:02.931Z,3.88
2023-08-21T14:51:06.768Z,4.20
2023-08-21T14:56:09.308Z,4.53
2023-08-21T15:01:12.189Z,4.38
2023-08-21T15:06:16.890Z,3.97
2023-08-21T15:11:19.422Z,4.93
2023-08-21T15:16:22.031Z,4.63
2023-08-21T15:21:24.626Z,4.90
2023-08-21T15:26:27.494Z,4.43
2023-08-21T15:31:43.863Z,4.75
2023-08-21T15:37:06.832Z,5.57
2023-08-21T15:42:16.373Z,4.30
2023-08-21T15:52:24.468Z,3.95
2023-08-21T15:57:27.101Z,3.63
2023-08-21T16:02:29.871Z,3.08
2023-08-21T16:07:34.671Z,3.72
2023-08-21T16:12:37.652Z,3.72
2023-08-21T16:17:40.690Z,3.95
2023-08-21T16:22:43.718Z,3.65
2023-08-21T16:27:46.374Z,4.32
2023-08-21T16:32:52.816Z,3.35
2023-08-21T16:37:55.558Z,3.35
2023-08-21T16:42:58.331Z,3.03
2023-08-21T16:48:01.243Z,3.08
2023-08-21T16:53:17.526Z,2.55
2023-08-21T16:58:25.710Z,1.85
2023-08-21T17:03:28.417Z,2.72
2023-08-21T17:08:31.116Z,2.13
2023-08-21T17:13:33.751Z,1.88
2023-08-21T17:18:36.314Z,2.67
2023-08-21T17:23:38.983Z,3.38
2023-08-21T17:28:41.743Z,2.55
2023-08-21T17:33:44.456Z,3.22
2023-08-21T17:38:47.081Z,2.70
2023-08-21T17:43:49.756Z,3.20
2023-08-21T17:48:52.447Z,3.88
2023-08-21T17:53:55.171Z,2.70
2023-08-21T17:58:58.099Z,2.92
2023-08-21T18:04:00.926Z,3.03
2023-08-21T18:09:05.118Z,2.75
2023-08-21T18:14:08.279Z,2.78
2023-08-21T18:19:10.986Z,2.50
2023-08-21T18:24:13.633Z,2.30
2023-08-21T18:29:16.209Z,3.00
2023-08-21T18:34:18.867Z,2.90
2023-08-21T18:39:21.658Z,2.58
2023-08-21T18:44:26.207Z,2.85
2023-08-21T18:49:28.769Z,2.80
2023-08-21T18:54:31.345Z,2.90
2023-08-21T18:59:34.010Z,3.10
2023-08-21T19:04:36.548Z,3.00
2023-08-21T19:09:39.073Z,2.72
2023-08-21T19:14:41.574Z,2.40
2023-08-21T19:19:44.088Z,2.55
2023-08-21T19:24:46.604Z,2.47
2023-08-21T19:29:49.171Z,1.98
2023-08-21T19:34:51.919Z,2.28
2023-08-21T19:39:54.507Z,2.28
2023-08-21T19:44:57.077Z,2.88
2023-08-21T19:49:59.708Z,2.72
2023-08-21T19:55:02.166Z,3.15
2023-08-21T20:00:06.427Z,3.35
2023-08-21T20:05:10.115Z,2.70
2023-08-21T20:10:12.664Z,3.25
2023-08-21T20:15:15.414Z,3.40
2023-08-21T20:20:18.006Z,3.28
2023-08-21T20:25:20.862Z,2.40
2023-08-21T20:30:23.514Z,3.20
2023-08-21T20:35:26.182Z,2.92
2023-08-21T20:40:28.758Z,3.03
2023-08-21T20:45:32.703Z,3.72
2023-08-21T20:50:35.387Z,3.10
2023-08-21T20:55:38.184Z,3.30
2023-08-21T21:00:42.453Z,3.55
2023-08-21T21:05:45.170Z,3.67
2023-08-21T21:10:47.781Z,3.72
2023-08-21T21:15:50.342Z,3.85
2023-08-21T21:20:52.910Z,4.22
2023-08-21T21:26:01.702Z,3.53
2023-08-21T21:31:04.339Z,3.20
2023-08-21T21:36:07.138Z,3.45
2023-08-21T21:41:09.679Z,3.95
2023-08-21T21:46:18.494Z,3.72
2023-08-21T21:51:21.469Z,3.67
2023-08-21T21:56:24.008Z,3.30
2023-08-21T22:01:26.641Z,2.88
2023-08-21T22:06:30.415Z,3.05
2023-08-21T22:11:33.157Z,3.45
2023-08-21T22:16:35.810Z,3.47
2023-08-21T22:21:38.348Z,4.10
2023-08-21T22:26:42.617Z,3.40
2023-08-21T22:36:48.437Z,3.30
2023-08-21T22:41:50.962Z,3.22
2023-08-21T22:46:53.509Z,3.72
2023-08-21T22:51:56.062Z,3.15
2023-08-21T22:56:58.695Z,3.75
2023-08-21T23:02:01.271Z,3.60
2023-08-21T23:07:04.480Z,3.28
2023-08-21T23:12:08.253Z,3.50
2023-08-21T23:17:10.812Z,3.42
2023-08-21T23:22:13.408Z,3.60
2023-08-21T23:27:15.967Z,3.35
2023-08-21T23:32:18.493Z,4.65
2023-08-21T23:37:21.086Z,4.25
2023-08-21T23:42:23.662Z,3.90
2023-08-21T23:47:26.193Z,3.80
2023-08-21T23:52:28.757Z,4.15
2023-08-21T23:57:32.374Z,3.83
